createdAt,value
2018-07-06T00:01:20.982Z,81.57
2018-07-06T00:04:07.208Z,81.28
2018-07-06T00:06:53.462Z,81.48
2018-07-06T00:09:39.762Z,81.97
2018-07-06T00:12:26.137Z,81.48
2018-07-06T00:15:12.137Z,81.23
2018-07-06T00:17:58.483Z,81.44
2018-07-06T00:20:44.720Z,81.82
2018-07-06T00:23:30.982Z,81.62
2018-07-06T00:26:17.393Z,81.67
2018-07-06T00:29:03.874Z,81.56
2018-07-06T00:31:50.266Z,81.21
2018-07-06T00:34:36.595Z,81.32
2018-07-06T00:37:23.655Z,80.94
2018-07-06T00:40:10.102Z,80.99
2018-07-06T00:42:56.464Z,81.75
2018-07-06T00:45:42.759Z,81.65
2018-07-06T00:48:29.625Z,80.72
2018-07-06T00:51:16.069Z,81.38
2018-07-06T00:54:02.480Z,81.71
2018-07-06T00:56:49.013Z,81.72
2018-07-06T00:59:35.175Z,81.32
2018-07-06T01:02:21.525Z,80.76
2018-07-06T01:05:07.845Z,80.70
2018-07-06T01:07:53.975Z,81.59
2018-07-06T01:10:40.338Z,81.53
2018-07-06T01:13:26.682Z,81.64
2018-07-06T01:16:13.193Z,81.39
2018-07-06T01:18:59.397Z,81.15
2018-07-06T01:21:45.816Z,82.05
2018-07-06T01:24:32.190Z,81.17
2018-07-06T01:27:18.401Z,81.48
2018-07-06T01:30:04.818Z,81.72
2018-07-06T01:32:51.307Z,81.37
2018-07-06T01:35:37.585Z,80.96
2018-07-06T01:38:24.021Z,81.54
2018-07-06T01:41:10.544Z,81.38
2018-07-06T01:43:56.849Z,81.70
2018-07-06T01:46:43.173Z,81.14
2018-07-06T01:49:29.457Z,82.05
2018-07-06T01:52:15.821Z,81.32
2018-07-06T01:55:02.111Z,82.02
2018-07-06T01:57:48.409Z,80.97
2018-07-06T02:00:34.932Z,81.31
2018-07-06T02:03:21.503Z,81.29
2018-07-06T02:06:07.950Z,80.80
2018-07-06T02:08:54.342Z,81.53
2018-07-06T02:11:40.996Z,81.64
2018-07-06T02:14:27.399Z,81.34
2018-07-06T02:17:13.649Z,81.65
2018-07-06T02:20:00.129Z,80.91
2018-07-06T02:22:46.257Z,80.95
2018-07-06T02:25:32.762Z,79.85
2018-07-06T02:28:18.877Z,80.71
2018-07-06T02:31:05.151Z,80.41
2018-07-06T02:33:51.494Z,79.34
2018-07-06T02:36:37.910Z,79.79
2018-07-06T02:39:24.067Z,80.04
2018-07-06T02:42:10.467Z,80.98
2018-07-06T02:44:56.832Z,81.33
2018-07-06T02:47:43.005Z,81.65
2018-07-06T02:50:29.395Z,81.12
2018-07-06T02:53:15.726Z,81.64
2018-07-06T02:56:02.159Z,82.14
2018-07-06T02:58:48.318Z,82.11
2018-07-06T03:01:34.685Z,83.03
2018-07-06T03:04:21.041Z,82.83
2018-07-06T03:07:07.538Z,83.53
2018-07-06T03:09:53.810Z,83.01
2018-07-06T03:12:40.045Z,83.40
2018-07-06T03:15:26.323Z,83.54
2018-07-06T03:18:12.736Z,83.69
2018-07-06T03:20:59.020Z,83.32
2018-07-06T03:23:45.511Z,83.92
2018-07-06T03:26:31.800Z,83.08
2018-07-06T03:29:18.224Z,83.60
2018-07-06T03:32:04.645Z,83.88
2018-07-06T03:34:50.780Z,84.19
2018-07-06T03:37:37.277Z,83.79
2018-07-06T03:40:23.759Z,83.94
2018-07-06T03:43:09.936Z,84.51
2018-07-06T03:45:56.199Z,84.66
2018-07-06T03:48:42.432Z,83.83
2018-07-06T03:51:29.743Z,84.40
2018-07-06T03:54:16.186Z,83.94
2018-07-06T03:57:02.440Z,83.98
2018-07-06T03:59:48.781Z,83.74
2018-07-06T04:02:35.164Z,84.57
2018-07-06T04:05:21.533Z,84.24
2018-07-06T04:08:07.883Z,84.83
2018-07-06T04:10:54.349Z,83.84
2018-07-06T04:13:40.595Z,83.73
2018-07-06T04:16:26.893Z,83.97
2018-07-06T04:19:13.362Z,83.78
2018-07-06T04:21:59.761Z,83.40
2018-07-06T04:24:45.743Z,83.58
2018-07-06T04:27:32.021Z,83.12
2018-07-06T04:30:18.333Z,83.39
2018-07-06T04:33:04.611Z,82.62
2018-07-06T04:35:51.146Z,82.95
2018-07-06T04:38:37.486Z,83.47
2018-07-06T04:41:24.093Z,83.29
2018-07-06T04:44:10.520Z,83.47
2018-07-06T04:46:56.825Z,83.77
2018-07-06T04:49:43.185Z,84.17
2018-07-06T04:52:29.460Z,84.58
2018-07-06T04:55:15.736Z,84.66
2018-07-06T04:58:02.135Z,84.04
2018-07-06T05:00:48.300Z,83.46
2018-07-06T05:03:34.592Z,84.47
2018-07-06T05:06:21.160Z,84.23
2018-07-06T05:09:07.776Z,83.45
2018-07-06T05:11:54.053Z,84.28
2018-07-06T05:14:40.144Z,84.80
2018-07-06T05:17:26.415Z,84.99
2018-07-06T05:20:12.634Z,84.41
2018-07-06T05:22:52.953Z,84.99
2018-07-06T05:25:39.245Z,85.40
2018-07-06T05:28:25.721Z,85.05
2018-07-06T05:31:12.142Z,84.53
2018-07-06T05:33:58.323Z,85.64
2018-07-06T05:36:44.665Z,85.43
2018-07-06T05:39:30.948Z,85.75
2018-07-06T05:42:17.217Z,85.61
2018-07-06T05:45:03.634Z,85.65
2018-07-06T05:47:50.129Z,86.69
2018-07-06T05:50:36.614Z,86.39
2018-07-06T05:53:23.048Z,86.74
2018-07-06T05:56:09.385Z,86.75
2018-07-06T05:58:55.794Z,87.77
2018-07-06T06:01:42.416Z,87.81
2018-07-06T06:04:28.882Z,87.34
2018-07-06T06:07:15.301Z,87.12
2018-07-06T06:09:44.727Z,87.22
2018-07-06T06:12:14.180Z,86.93
2018-07-06T06:14:43.517Z,87.31
2018-07-06T06:17:13.212Z,87.58
2018-07-06T06:19:42.685Z,87.20
2018-07-06T06:22:12.062Z,86.43
2018-07-06T06:24:41.528Z,86.80
2018-07-06T06:27:10.856Z,86.42
2018-07-06T06:29:40.263Z,86.12
2018-07-06T06:32:10.251Z,86.09
2018-07-06T06:34:39.595Z,86.96
2018-07-06T06:37:08.641Z,85.94
2018-07-06T06:39:37.970Z,86.27
2018-07-06T06:42:07.315Z,86.69
2018-07-06T06:44:36.749Z,86.79
2018-07-06T06:47:06.146Z,86.78
2018-07-06T06:49:35.676Z,86.52
2018-07-06T06:52:05.023Z,86.89
2018-07-06T06:54:34.426Z,85.87
2018-07-06T06:57:03.897Z,86.23
2018-07-06T06:59:33.347Z,86.52
2018-07-06T07:02:02.753Z,86.31
2018-07-06T07:04:32.325Z,86.08
2018-07-06T07:07:01.919Z,85.31
2018-07-06T07:09:31.296Z,86.65
2018-07-06T07:12:00.690Z,85.86
2018-07-06T07:14:30.111Z,86.46
2018-07-06T07:16:59.568Z,86.40
2018-07-06T07:19:29.116Z,85.42
2018-07-06T07:21:58.528Z,85.21
2018-07-06T07:24:28.022Z,85.62
2018-07-06T07:27:00.390Z,85.75
2018-07-06T07:29:30.263Z,86.17
2018-07-06T07:31:59.725Z,85.18
2018-07-06T07:34:30.133Z,85.53
2018-07-06T07:36:59.567Z,84.90
2018-07-06T07:39:29.034Z,85.20
2018-07-06T07:41:58.411Z,85.26
2018-07-06T07:44:27.834Z,85.38
2018-07-06T07:46:57.280Z,86.09
2018-07-06T07:49:26.753Z,86.03
2018-07-06T07:52:13.503Z,84.97
2018-07-06T07:54:55.486Z,85.42
2018-07-06T07:57:25.152Z,84.71
2018-07-06T07:59:56.744Z,84.68
2018-07-06T08:02:26.511Z,84.96
2018-07-06T08:04:55.862Z,84.61
2018-07-06T08:07:25.206Z,84.45
2018-07-06T08:09:54.546Z,84.90
2018-07-06T08:12:24.310Z,84.31
2018-07-06T08:14:54.022Z,84.38
2018-07-06T08:17:23.375Z,85.69
2018-07-06T08:19:52.790Z,85.59
2018-07-06T08:22:22.149Z,85.46
2018-07-06T08:24:51.530Z,85.97
2018-07-06T08:27:20.874Z,84.68
2018-07-06T08:29:50.258Z,85.77
2018-07-06T08:32:19.589Z,85.70
2018-07-06T08:35:05.865Z,85.97
2018-07-06T08:37:54.780Z,86.26
2018-07-06T08:40:25.344Z,86.41
2018-07-06T08:42:55.938Z,86.04
2018-07-06T08:45:25.687Z,87.20
2018-07-06T08:47:55.089Z,86.47
2018-07-06T08:50:25.445Z,86.14
2018-07-06T08:52:55.451Z,86.30
2018-07-06T08:55:25.263Z,86.68
2018-07-06T08:57:55.876Z,86.30
2018-07-06T09:00:25.233Z,85.91
2018-07-06T09:02:54.577Z,86.39
2018-07-06T09:05:23.904Z,86.39
2018-07-06T09:07:53.275Z,86.93
2018-07-06T09:10:22.747Z,87.21
2018-07-06T09:12:52.083Z,87.70
2018-07-06T09:15:21.420Z,87.50
2018-07-06T09:17:50.723Z,86.83
2018-07-06T09:20:20.056Z,86.37
2018-07-06T09:22:49.648Z,86.63
2018-07-06T09:25:19.006Z,86.21
2018-07-06T09:27:48.325Z,86.51
2018-07-06T09:30:17.774Z,85.81
2018-07-06T09:32:47.110Z,85.68
2018-07-06T09:35:18.542Z,86.17
2018-07-06T09:37:47.950Z,86.10
2018-07-06T09:40:17.252Z,85.77
2018-07-06T09:42:46.611Z,85.72
2018-07-06T09:45:15.937Z,86.01
2018-07-06T09:47:45.517Z,85.92
2018-07-06T09:50:14.822Z,85.33
2018-07-06T09:52:44.173Z,85.29
2018-07-06T09:55:13.602Z,85.78
2018-07-06T09:57:42.968Z,86.37
2018-07-06T10:00:16.494Z,85.59
2018-07-06T10:02:45.887Z,84.89
2018-07-06T10:05:15.410Z,85.82
2018-07-06T10:07:44.797Z,85.09
2018-07-06T10:10:14.256Z,85.63
2018-07-06T10:12:43.765Z,85.29
2018-07-06T10:15:13.183Z,84.69
2018-07-06T10:17:42.573Z,83.87
2018-07-06T10:20:11.966Z,84.04
2018-07-06T10:22:41.344Z,84.58
2018-07-06T10:25:10.724Z,84.99
2018-07-06T10:27:58.422Z,85.58
2018-07-06T10:30:50.596Z,86.00
2018-07-06T10:33:20.010Z,85.53
2018-07-06T10:35:49.406Z,85.87
2018-07-06T10:38:18.773Z,84.14
2018-07-06T10:40:48.195Z,84.40
2018-07-06T10:43:17.604Z,84.90
2018-07-06T10:45:46.973Z,84.97
2018-07-06T10:48:16.384Z,85.12
2018-07-06T10:50:45.766Z,85.01
2018-07-06T10:53:15.112Z,85.06
2018-07-06T10:55:44.799Z,85.58
2018-07-06T10:58:14.889Z,85.51
2018-07-06T11:00:44.367Z,85.43
2018-07-06T11:03:13.693Z,85.27
2018-07-06T11:05:43.245Z,84.85
2018-07-06T11:08:12.655Z,85.74
2018-07-06T11:10:42.023Z,84.90
2018-07-06T11:13:11.350Z,85.68
2018-07-06T11:15:40.705Z,85.10
2018-07-06T11:18:10.092Z,85.13
2018-07-06T11:20:39.408Z,85.22
2018-07-06T11:23:08.750Z,83.81
2018-07-06T11:25:38.090Z,85.23
2018-07-06T11:28:08.432Z,85.16
2018-07-06T11:30:37.907Z,84.39
2018-07-06T11:33:07.275Z,83.77
2018-07-06T11:35:36.845Z,83.63
2018-07-06T11:38:06.301Z,83.41
2018-07-06T11:40:35.590Z,84.24
2018-07-06T11:43:05.013Z,82.82
2018-07-06T11:45:34.351Z,82.40
2018-07-06T11:48:03.699Z,82.01
2018-07-06T11:50:33.336Z,83.03
2018-07-06T11:53:02.814Z,81.38
2018-07-06T11:55:32.450Z,83.08
2018-07-06T11:58:01.806Z,84.46
2018-07-06T12:00:31.434Z,83.66
2018-07-06T12:03:00.861Z,83.44
2018-07-06T12:05:30.450Z,84.23
2018-07-06T12:07:59.846Z,83.00
2018-07-06T12:10:29.342Z,82.59
2018-07-06T12:12:58.721Z,83.53
2018-07-06T12:15:28.181Z,82.55
2018-07-06T12:17:57.685Z,84.53
2018-07-06T12:20:27.125Z,84.14
2018-07-06T12:22:56.545Z,84.90
2018-07-06T12:25:26.517Z,85.15
2018-07-06T12:27:55.943Z,84.12
2018-07-06T12:30:25.345Z,84.20
2018-07-06T12:32:54.708Z,83.76
2018-07-06T12:35:24.102Z,83.17
2018-07-06T12:37:53.486Z,82.28
2018-07-06T12:40:23.010Z,82.40
2018-07-06T12:42:52.445Z,82.62
2018-07-06T12:45:21.877Z,83.00
2018-07-06T12:47:51.224Z,83.03
2018-07-06T12:50:20.604Z,83.03
2018-07-06T12:52:49.999Z,81.62
2018-07-06T12:55:19.383Z,81.98
2018-07-06T12:57:48.776Z,82.29
2018-07-06T13:00:18.129Z,82.69
2018-07-06T13:02:47.983Z,83.32
2018-07-06T13:05:17.391Z,83.60
2018-07-06T13:07:47.025Z,84.11
2018-07-06T13:10:16.412Z,82.97
2018-07-06T13:12:45.760Z,82.17
2018-07-06T13:15:15.126Z,83.18
2018-07-06T13:17:44.527Z,82.87
2018-07-06T13:20:14.490Z,82.58
2018-07-06T13:22:44.104Z,82.52
2018-07-06T13:25:13.515Z,82.38
2018-07-06T13:27:42.887Z,82.37
2018-07-06T13:30:12.323Z,81.19
2018-07-06T13:32:41.699Z,81.30
2018-07-06T13:35:11.268Z,81.50
2018-07-06T13:37:40.649Z,81.37
2018-07-06T13:40:10.081Z,81.21
2018-07-06T13:42:39.537Z,81.40
2018-07-06T13:45:08.892Z,80.70
2018-07-06T13:47:38.266Z,80.44
2018-07-06T13:50:07.634Z,80.71
2018-07-06T13:52:36.998Z,81.18
2018-07-06T13:55:06.469Z,80.88
2018-07-06T13:57:35.818Z,81.46
2018-07-06T14:00:05.225Z,80.62
2018-07-06T14:02:34.649Z,80.36
2018-07-06T14:05:04.243Z,79.28
2018-07-06T14:07:33.596Z,79.12
2018-07-06T14:10:03.010Z,80.17
2018-07-06T14:12:32.313Z,80.26
2018-07-06T14:15:01.716Z,80.15
2018-07-06T14:17:31.085Z,80.48
2018-07-06T14:20:00.466Z,80.17
2018-07-06T14:22:29.864Z,79.88
2018-07-06T14:24:59.228Z,79.71
2018-07-06T14:27:28.689Z,80.63
2018-07-06T14:29:58.063Z,80.17
2018-07-06T14:32:27.164Z,81.19
2018-07-06T14:34:56.944Z,80.63
2018-07-06T14:37:26.377Z,80.68
2018-07-06T14:39:55.766Z,80.17
2018-07-06T14:42:25.238Z,80.38
2018-07-06T14:44:54.583Z,80.05
2018-07-06T14:47:23.917Z,79.23
2018-07-06T14:49:53.266Z,77.10
2018-07-06T14:52:22.641Z,77.43
2018-07-06T14:54:52.034Z,76.89
2018-07-06T14:57:21.360Z,76.31
2018-07-06T14:59:50.670Z,75.96
2018-07-06T15:02:20.010Z,74.81
2018-07-06T15:04:49.349Z,75.63
2018-07-06T15:07:18.685Z,75.56
2018-07-06T15:09:48.917Z,76.22
2018-07-06T15:12:18.322Z,76.38
2018-07-06T15:14:47.631Z,77.50
2018-07-06T15:17:17.040Z,75.27
2018-07-06T15:19:46.356Z,75.78
2018-07-06T15:22:15.710Z,75.65
2018-07-06T15:24:45.129Z,74.74
2018-07-06T15:27:14.449Z,74.67
2018-07-06T15:29:43.799Z,75.05
2018-07-06T15:32:13.135Z,74.67
2018-07-06T15:34:42.508Z,75.05
2018-07-06T15:37:11.850Z,75.45
2018-07-06T15:39:41.157Z,75.42
2018-07-06T15:42:10.988Z,74.23
2018-07-06T15:44:40.462Z,73.69
2018-07-06T15:47:09.782Z,73.39
2018-07-06T15:49:39.157Z,74.18
2018-07-06T15:52:08.727Z,73.51
2018-07-06T15:54:37.839Z,73.90
2018-07-06T15:57:07.248Z,72.89
2018-07-06T15:59:36.595Z,72.91
2018-07-06T16:02:06.000Z,73.44
2018-07-06T16:04:35.402Z,73.93
2018-07-06T16:07:04.763Z,73.21
2018-07-06T16:09:34.179Z,72.87
2018-07-06T16:12:03.734Z,72.10
2018-07-06T16:14:33.163Z,72.39
2018-07-06T16:17:02.518Z,71.37
2018-07-06T16:19:31.892Z,71.84
2018-07-06T16:22:01.322Z,72.25
2018-07-06T16:24:30.739Z,73.32
2018-07-06T16:27:00.117Z,73.31
2018-07-06T16:29:29.565Z,73.95
2018-07-06T16:31:58.962Z,73.45
2018-07-06T16:34:28.500Z,73.90
2018-07-06T16:36:57.857Z,74.19
2018-07-06T16:39:27.534Z,73.41
2018-07-06T16:41:56.923Z,72.12
2018-07-06T16:44:26.311Z,71.83
2018-07-06T16:46:55.695Z,72.14
2018-07-06T16:49:25.039Z,72.21
2018-07-06T16:51:54.394Z,71.60
2018-07-06T16:54:23.766Z,71.70
2018-07-06T16:56:53.095Z,71.72
2018-07-06T16:59:22.429Z,71.07
2018-07-06T17:01:51.769Z,71.23
2018-07-06T17:04:21.140Z,70.41
2018-07-06T17:06:50.492Z,69.87
2018-07-06T17:09:19.966Z,70.97
2018-07-06T17:11:49.353Z,71.41
2018-07-06T17:14:18.854Z,71.87
2018-07-06T17:16:48.176Z,72.69
2018-07-06T17:19:17.629Z,73.37
2018-07-06T17:21:46.978Z,74.52
2018-07-06T17:24:16.403Z,74.38
2018-07-06T17:26:46.111Z,75.38
2018-07-06T17:29:15.398Z,75.15
2018-07-06T17:31:44.742Z,76.03
2018-07-06T17:34:14.148Z,76.26
2018-07-06T17:36:43.534Z,76.52
2018-07-06T17:39:12.956Z,76.21
2018-07-06T17:41:42.301Z,77.04
2018-07-06T17:44:11.675Z,76.72
2018-07-06T17:46:41.091Z,77.74
2018-07-06T17:49:10.561Z,76.99
2018-07-06T17:51:40.666Z,77.52
2018-07-06T17:54:10.098Z,77.42
2018-07-06T17:56:39.492Z,77.34
2018-07-06T17:59:08.897Z,77.25
2018-07-06T18:01:38.309Z,77.65
2018-07-06T18:04:07.848Z,77.72
2018-07-06T18:06:37.291Z,78.20
2018-07-06T18:09:07.238Z,78.26
2018-07-06T18:11:36.632Z,79.21
2018-07-06T18:14:06.120Z,79.80
2018-07-06T18:16:35.526Z,79.85
2018-07-06T18:19:04.987Z,79.60
2018-07-06T18:21:34.429Z,80.44
2018-07-06T18:24:03.808Z,80.52
2018-07-06T18:26:33.181Z,80.69
2018-07-06T18:29:02.578Z,80.76
2018-07-06T18:31:31.981Z,81.35
2018-07-06T18:34:01.421Z,81.02
2018-07-06T18:36:30.762Z,81.95
2018-07-06T18:39:00.268Z,81.68
2018-07-06T18:41:29.623Z,81.55
2018-07-06T18:43:58.981Z,81.19
2018-07-06T18:46:28.378Z,82.05
2018-07-06T18:48:57.715Z,81.92
2018-07-06T18:51:27.240Z,81.34
2018-07-06T18:53:56.634Z,81.86
2018-07-06T18:56:26.038Z,81.12
2018-07-06T18:58:55.465Z,82.11
2018-07-06T19:01:24.837Z,81.91
2018-07-06T19:03:54.289Z,81.56
2018-07-06T19:06:24.560Z,81.48
2018-07-06T19:08:55.364Z,81.87
2018-07-06T19:11:24.754Z,81.53
2018-07-06T19:13:54.111Z,81.27
2018-07-06T19:16:23.698Z,81.21
2018-07-06T19:18:53.232Z,80.40
2018-07-06T19:21:22.605Z,80.44
2018-07-06T19:23:52.024Z,80.49
2018-07-06T19:26:21.392Z,80.06
2018-07-06T19:28:50.895Z,80.30
2018-07-06T19:31:20.306Z,80.61
2018-07-06T19:33:49.487Z,80.22
2018-07-06T19:36:18.980Z,80.86
2018-07-06T19:38:48.980Z,80.78
2018-07-06T19:41:18.357Z,80.76
2018-07-06T19:43:47.746Z,80.24
2018-07-06T19:46:17.208Z,79.91
2018-07-06T19:48:46.687Z,80.21
2018-07-06T19:51:16.065Z,80.74
2018-07-06T19:53:45.596Z,80.06
2018-07-06T19:56:15.040Z,80.13
2018-07-06T19:58:44.420Z,80.27
2018-07-06T20:01:14.131Z,80.04
2018-07-06T20:03:43.515Z,80.17
2018-07-06T20:06:12.857Z,80.67
2018-07-06T20:08:42.326Z,80.10
2018-07-06T20:11:11.635Z,80.09
2018-07-06T20:13:41.031Z,79.38
2018-07-06T20:16:10.401Z,79.27
2018-07-06T20:18:39.825Z,79.99
2018-07-06T20:21:09.210Z,79.85
2018-07-06T20:23:38.670Z,79.92
2018-07-06T20:26:08.046Z,79.42
2018-07-06T20:28:37.447Z,79.05
2018-07-06T20:31:06.815Z,79.57
2018-07-06T20:33:36.199Z,79.24
2018-07-06T20:36:05.871Z,78.98
2018-07-06T20:38:35.253Z,79.65
2018-07-06T20:41:04.613Z,80.05
2018-07-06T20:43:34.049Z,79.61
2018-07-06T20:46:03.399Z,79.23
2018-07-06T20:48:32.779Z,79.10
2018-07-06T20:51:02.220Z,78.24
2018-07-06T20:53:31.567Z,79.07
2018-07-06T20:56:00.933Z,79.13
2018-07-06T20:58:30.282Z,78.52
2018-07-06T21:00:59.658Z,78.55
2018-07-06T21:03:28.981Z,78.03
2018-07-06T21:05:58.369Z,77.76
2018-07-06T21:08:27.711Z,77.64
2018-07-06T21:10:57.224Z,78.49
2018-07-06T21:13:26.566Z,80.57
2018-07-06T21:15:55.927Z,80.73
2018-07-06T21:18:25.285Z,81.46
2018-07-06T21:20:54.671Z,82.73
2018-07-06T21:23:24.037Z,83.06
2018-07-06T21:25:53.393Z,83.15
2018-07-06T21:28:22.714Z,83.27
2018-07-06T21:30:52.050Z,82.81
2018-07-06T21:33:21.391Z,83.94
2018-07-06T21:35:50.791Z,83.54
2018-07-06T21:38:20.085Z,84.15
2018-07-06T21:40:49.414Z,84.10
2018-07-06T21:43:18.754Z,84.10
2018-07-06T21:45:48.393Z,84.09
2018-07-06T21:48:17.724Z,84.79
2018-07-06T21:50:47.137Z,84.81
2018-07-06T21:53:16.435Z,84.55
2018-07-06T21:55:45.802Z,83.12
2018-07-06T21:58:15.139Z,82.98
2018-07-06T22:00:44.527Z,82.88
2018-07-06T22:03:13.880Z,83.23
2018-07-06T22:05:43.514Z,83.71
2018-07-06T22:08:12.873Z,82.70
2018-07-06T22:10:42.361Z,82.70
2018-07-06T22:13:11.664Z,83.36
2018-07-06T22:15:45.079Z,82.81
2018-07-06T22:18:16.298Z,83.27
2018-07-06T22:20:46.690Z,83.51
2018-07-06T22:23:16.460Z,83.12
2018-07-06T22:25:45.869Z,82.24
2018-07-06T22:28:15.290Z,83.08
2018-07-06T22:30:44.725Z,82.51
2018-07-06T22:33:14.110Z,82.54
2018-07-06T22:35:43.525Z,83.49
2018-07-06T22:38:12.941Z,82.91
2018-07-06T22:40:42.309Z,83.19
2018-07-06T22:43:11.696Z,83.03
2018-07-06T22:45:41.061Z,82.94
2018-07-06T22:48:10.454Z,83.32
2018-07-06T22:50:39.832Z,83.67
2018-07-06T22:53:09.229Z,83.31
2018-07-06T22:55:38.601Z,83.33
2018-07-06T22:58:07.941Z,82.87
2018-07-06T23:00:37.274Z,83.59
2018-07-06T23:03:06.784Z,83.42
2018-07-06T23:05:36.270Z,83.65
2018-07-06T23:08:05.823Z,83.16
2018-07-06T23:10:35.204Z,83.58
2018-07-06T23:13:04.573Z,83.23
2018-07-06T23:15:34.326Z,83.34
2018-07-06T23:18:03.677Z,83.41
2018-07-06T23:20:32.998Z,83.37
2018-07-06T23:23:10.150Z,83.88
2018-07-06T23:25:41.763Z,84.01
2018-07-06T23:28:11.168Z,84.18
2018-07-06T23:30:40.614Z,83.77
2018-07-06T23:33:10.537Z,84.20
2018-07-06T23:35:40.069Z,83.43
2018-07-06T23:38:09.597Z,83.55
2018-07-06T23:40:38.888Z,83.55
2018-07-06T23:43:08.237Z,83.77
2018-07-06T23:45:37.601Z,83.13
2018-07-06T23:48:06.980Z,83.87
2018-07-06T23:50:36.346Z,83.46
2018-07-06T23:53:05.926Z,83.08
2018-07-06T23:55:35.266Z,83.86
2018-07-06T23:58:04.593Z,83.85
